Member area
Imprimable
Villers-la-Ville, 06/10/2018, BEL - Trail de l'Abbaye
List of reports > 30km - Result
Search: Page: [1]
268 Entries
 
Complains are not accepted anymore. Results are final.
Category
PosNrNameAgeNATLeagueTeamRealTimeTkmMoy.PlaceNameCity
1.273VAN LOKEREN STIJN38BEL2:03:342:03:384:08 14.561homSINT-PAUWELS
2.1277PEIRSMAN YVES36BEL2:13:072:13:114:27 13.522homLUBBEEK
3.239LIBERT DAMIEN27BEL2:14:412:14:454:30 13.363homSAINT-SERVAIS
4.548MAHIA SEBASTIEN32BEL2:15:372:15:374:32 13.274homNAMUR
5.490TRULLEMANS JEAN-LUC45BEL2:17:422:17:564:36 13.055hom
6.518VAN GULCK OLIVIER35BEL2:18:072:18:124:37 13.026homBRUXELLES
7.522SERVRANCKX KEVIN36BEL2:18:272:18:334:38 12.997homSINT-JORIS-WEERT
8.1061JOYE MAARTEN38BEL2:19:332:19:384:40 12.898homEVERBEEK
9.144DETRAIT HUGUES30BEL2:21:022:21:024:43 12.769homPHILIPPEVILLE
10.980RIQUET BENJAMIN31BEL2:22:412:22:444:46 12.6110homBAISY-THY
11.143EGO LAURENT30BEL2:23:052:23:104:47 12.5711homWOLUWE-SAINT-LAMBERT
12.174HANNEQUART XAVIER40BEL2:23:302:23:434:48 12.5312homCHASTRE
13.954LEPLAE PASCAL47BEL2:24:142:24:174:49 12.4813homNIVELLES
14.520VERDOOT XAVIER40BEL2:24:382:24:444:50 12.4414homGENVAL
15.495GIVRON RÉGIS ROBERT28BEL2:25:112:25:114:51 12.4015homCHARLEROI
16.361DELHAISE JEAN-MARTIN37BEL2:25:122:25:154:51 12.3916homEVERE
17.138CAMPION JONAS36BEL2:26:152:26:214:53 12.3017homCOURT ST ETIENNE
18.367SCHOUMACKERS BENOÎT44BEL2:29:032:29:034:59 12.0818homHUY
19.328DURIEU ANTOINE35BEL2:29:432:29:485:00 12.0219homBRAINE LE CHÂTEAU
20.327BLONDEL JEAN-BAPTISTE38BEL2:30:082:30:135:01 11.9820homNIVELLES
21.274COLLOT JO54BEL2:31:302:31:345:04 11.8821homGREZ-DOICEAU
22.445COLLIGNON AXEL27BEL2:31:422:31:455:04 11.8622homLIBRAMONT-CHEVIGNY
23.426MAES GUILLAUME29BEL2:31:392:31:545:04 11.8523homWSL
24.474BOYDENS BART46BEL2:32:082:32:165:05 11.8224homOVERIJSE
25.383DELERS MAXIMILIEN32BEL2:32:472:32:525:06 11.7825homSOIGNIES
26.488CLAEYS YVES31BEL2:32:582:33:095:07 11.7526homSCHEPDAAL
27.113JACQUES EDDY48BEL2:33:572:34:055:09 11.6827homMANAGE
28.983SANA FLORENT28BEL2:34:092:34:255:09 11.6628homLUTTRE
29.381JEUNEHOMME DENIS44BEL2:36:262:36:335:14 11.5029homAMAY
30.994FRIJS CAROLINE31BEL2:36:342:36:345:14 11.501damCHANTEMELLE
31.359MALISOUX LAURENT40BEL2:36:302:36:345:14 11.5030homCHANTEMELLE
32.1313ELOY MATHIEU38BEL2:36:302:36:345:14 11.5031homBRYE
33.977VALOIS ALLAN23BEL2:36:512:36:545:14 11.4732homNAAST
34.487CARNOY FRANCOIS31BEL2:37:382:37:495:16 11.4133homBRUXELLES
35.78VAN DEN BOGAERT MIGUEL31BEL2:37:292:38:005:16 11.3934homETTERBEEK
36.1090SCHOUPPE ANDY38BEL2:38:262:38:315:18 11.3635homDENDERWINDEKE
37.145RATINCKX JEAN-PHILIPPE30BEL2:39:042:39:085:19 11.3136homOTTIGNIES
38.497CASTEL BENJAMIN36FRA2:39:422:39:485:20 11.2637homBRAINE-L'ALLEUD
39.153TIMMERMANS GAETAN30BEL2:39:472:39:525:20 11.2638homETTERBEEK
40.98STOUFFS ADRIEN26BEL2:39:542:40:045:21 11.2539homOTTIGNIES
41.1269LAHAYE PHILIPPE54BEL2:39:542:40:045:21 11.2540homGREZ-DOICEAU
42.992VAN ROY WARD42BEL2:40:432:40:515:22 11.1941homARENDONK
43.350MICHEL JEAN-BENOIT39BEL2:41:082:41:145:23 11.1642homMORNIMONT
44.1411VAN CAUWENBERGH PHILIPPE47BEL2:41:272:41:345:24 11.1443homLOVERVAL
45.479DEWAEL YANNICK42BEL2:42:262:42:275:25 11.0844homWALHAIN
46.501DHAENENS DOLF24BEL2:42:322:42:425:26 11.0645homKORTRIJK
47.418DESCAMPS FRANÇOIS37BEL2:42:332:42:425:26 11.0646homMONTIGNIES LEZ LENS
48.1276AMADDEO MARLON26BEL2:43:302:43:405:28 11.0047homMARCINELLE
49.333JACQUES JULIEN29BEL2:44:042:44:105:29 10.9748homWATERLOO
50.391DECLERCQ BENOIT42BEL2:44:122:44:195:29 10.9549homMOUSCRON
51.448JACQUES ADRIEN35BEL2:44:132:44:265:29 10.9550homFLAWINNE
52.303VERRIEST JONATHAN32BEL2:45:002:45:105:31 10.9051homMARBAIS (BT.)
53.302VERRIEST DAMIEN30BEL2:45:002:45:115:31 10.9052homIXELLES
54.450REMAN SIMON32BEL2:45:062:45:205:31 10.8953homNAMUR
55.466HENRI HOUTART30BEL2:45:322:45:325:32 10.8754homBRUXELLES
56.405LAUREYS PIERRE57BEL2:45:322:45:405:32 10.8755homCOURT-SAINT-ETIENNE
57.24PEETERS NICOLAS31BEL2:45:162:45:475:32 10.8656homWEZEMBEEK-OPPEM
58.433ROUSSEAU DAVID45BEL2:46:282:46:455:34 10.7957homVILLE EN HESBAYE
59.379BUYTAERT FRANK47BEL2:46:192:46:465:34 10.7958homWORTEL
60.1092DE GROOTE EDOUARD31BEL2:46:372:46:475:34 10.7959homGENVAL
61.425GONZE BENJAMIN34BEL2:46:462:46:525:34 10.7960homVILLERS-LA-VILLE
62.186VRAL THIJS26BEL2:46:482:47:015:35 10.7861homGENT
63.484PAULUS DAVID43BEL2:47:032:47:095:35 10.7762hom
64.1232SCHREURS SÉBASTIEN42BEL2:47:152:47:175:35 10.7663homOTTIGNIES
65.349LIXANDRU ANDREI39ROU2:47:212:47:275:35 10.7564homVALENCIENNES
66.1085POTIER FREDERIC46BEL2:48:332:48:515:38 10.6665homNIVELLES
67.413HOTTIAUX CÉDRIC33BEL2:49:352:49:405:40 10.6166homLOUPOIGNE
68.1007VAN CAMP SÉBASTIEN42BEL2:49:372:49:405:40 10.6167homVIRGINAL
69.79REUBENS JÉRÔME25BEL2:49:402:50:005:40 10.5968homHOEILAART
70.1309VANDERPERREN CÉDRIC47BEL2:49:472:50:015:41 10.5969homRHODE-SAINT-GENÈSE
71.167WATTIAUX COLI37BEL2:49:432:50:015:41 10.5970homBAULERS
72.372MARCHI STEPHANE46BEL2:50:252:50:355:42 10.5571homANDERLUES
73.393FVERHAEGHE SOPHIE39BEL2:50:262:50:355:42 10.552damBAISY-THY
74.1270JONARD FRANCOIS-DAVID40BEL2:50:302:50:365:42 10.5572homCOURT-SAINT-ETIENNE
75.978COTTEELS MAXENCE29BEL2:51:582:52:165:45 10.4573homPONT A CELLES
76.275LEVY THOMAS21BEL2:52:322:52:405:46 10.4374homLATHUY
77.1320LIPPOLIS ADIEN31ITA2:52:452:52:565:46 10.4175homBRUXELLES
78.362DELPIERRE ROMAIN24BEL2:53:062:53:135:47 10.3976homOTTIGNIES
79.172FOX STÉPHAN41BEL2:53:102:53:185:47 10.3977homGESVES
80.6ERICX EDDY52BEL2:53:392:53:455:48 10.3678homREBAIX
81.515GEROGES BENOIT39BEL2:53:412:53:495:48 10.3679hom
82.979FHONDEQUIN ANNABELLE37BEL2:54:092:54:165:49 10.333damYVOIR
83.1284VOET MATTHIEU26BEL2:54:012:54:165:49 10.3380homMARBISOUX
84.443FTASIAUX LAURENCE41BEL2:54:102:54:285:49 10.324damLA LOUVIERE
85.414VERBRUGGEN PHILIPPE40BEL2:54:272:54:335:50 10.3181homRHODE-SAINT-GENÈSE
86.345VINCKENBOSCH JEAN-SÉBASTIEN28BEL2:54:292:54:365:50 10.3182homCOURT-SAINT-ETIENNE
87.158CORDIER PASCAL48BEL2:54:412:54:455:50 10.3083homFOREST
88.272BOURDOUX THIERRY36BEL2:54:332:54:505:50 10.3084homBRUXELLES
89.165DE SAEDELEER OLIVIER35BEL2:56:162:56:215:53 10.2185homCORROY LE CHATEAU
90.1044DEGEYTER DIMITRI37BEL2:56:312:56:425:54 10.1986homSENEFFE
91.467ROBYNS JÉRÔME32BEL2:56:452:57:005:54 10.1787homWOLUWE-SAINT-LAMBERT
92.358NÉMÉGAIRE LAURENT47BEL2:57:212:57:255:55 10.1588homJANDRAIN
93.180COULY BENOIT30BEL2:57:232:57:385:56 10.1389homGEMBLOUX
94.1247FLEGENDRE NINON44FRA2:58:092:58:155:57 10.105damLONGWY
95.415CODUTTI MARCO50BEL2:58:292:58:455:58 10.0790homBRUXELLES
96.941CASSEZ ALEXANDRE39FRA2:58:352:58:545:58 10.0691homBRUXELLES
97.1197VERSTICHEL ALAIN56BEL2:59:212:59:326:00 10.0392homTHUIN
98.206EVRARD THEODORE19BEL3:00:023:00:096:01 9.9993homLATHUY
99.149DELPERDANGE MAXIME19BEL3:00:023:00:106:01 9.9994homJODOIGNE-SOUVERAINE
100.427BARBULESCU ALECSANDRU38BEL3:00:243:00:316:02 9.9795homBOUSVAL
101.1261STEPHAN THIBAUD33FRA3:00:233:00:426:02 9.9696homSCHAERBEEK
102.321FCORNET GÉRALDINE28BEL3:00:493:00:526:02 9.956damOTTIGNIES
103.1080FLAMENT PIERRE26FRA3:01:083:01:126:03 9.9397homAUDERGHEM
104.1052DE SMET MICHAEL42BEL3:01:153:01:206:03 9.9398homFRASNES-LEZ-GOSSELIES
105.127MONTERO PIERRE53BEL3:01:103:01:266:03 9.9299homAUDERGHEM
106.452REMAN BRUNO36BEL3:01:233:01:376:04 9.91100homTEMPLOUX
107.323SARICH ALESSANDRO32BEL3:01:373:01:486:04 9.90101homGENVAL
108.184MICHAUDET ANTOINE26FRA3:01:423:01:566:04 9.89102homRAISMES
109.1089HUBEAUX VINCENT49BEL3:02:293:02:546:06 9.84103homFLAWINNE
110.150MICHEL OLIVIER37BEL3:02:283:02:546:06 9.84104homGEMBLOUX
111.1553CHEYROU-LAGRÈZE THIBAULT29FRA3:03:423:03:496:08 9.79105homCONTAMINE SUR ARVE
112.135JEANMART HERVÉ45BEL3:04:583:05:076:11 9.72106homJAMBES
113.1091VANDEN-BULCKE VICTOR24BEL3:05:003:05:086:11 9.72107homSOMBREFFE
114.384VAN DEN ESSEN TON51NLD3:05:043:05:196:11 9.71108homGELEEN
115.439VENOT PIERRE42FRA3:05:153:05:206:11 9.71109homRIXENSART
116.168BOULET ETIENNE37BEL3:05:423:06:026:13 9.68110homNIVELLES
117.1094POSKIN THIERRY59BEL3:05:563:06:206:13 9.66111homOBAIX
118.486HONGNE STEFAN43BEL3:06:343:06:436:14 9.64112homENGHIEN
119.1057VIVIER GEOFFREY43BEL3:06:223:06:446:14 9.64113homATH
120.1067NICOL FABIAN37BEL3:07:103:07:276:15 9.60114homOTTIGNIES
121.423FDELAHAUT DELPHINE29BEL3:07:333:07:406:16 9.597damWEPION
122.129GHIGNY THOMAS36BEL3:07:333:07:406:16 9.59115homGRAND MANIL
123.430MINET JEAN-PAUL58BEL3:07:323:07:486:16 9.59116homBIEZ
124.1231DE KUYPER CÉDRIC37BEL3:07:593:08:146:17 9.56117homBRUXELLES
125.392JAUMOTTE STÉPHANE31BEL3:08:073:08:156:17 9.56118homHAN-SUR-LESSE
126.511ESTERHAZY NICHOLAS57BEL3:08:163:08:496:18 9.53119homWAVRE
127.968PARDOEN THOMAS47BEL3:08:473:08:556:18 9.53120homMONT SAINT GUIBERT
128.260DORATIOTTO MATHIEU25BEL3:08:593:09:056:19 9.52121homGRAND-LEEZ
129.1047VANDENHOUCKE LIEVEN51BEL3:08:513:09:216:19 9.51122homGENT
130.1296FVERECKT MARJORIE37BEL3:09:153:09:296:19 9.508damBRUXELLES
131.519DUCHEMIN PHILIPPE39BEL3:09:333:09:446:20 9.49123homNIVELLES
132.163LIEVENS CLAUDE-PHILIPPE32BEL3:09:223:09:446:20 9.49124homDION-VALMONT
133.107KEGELS LAURENT47BEL3:09:523:10:056:21 9.47125homBRUXELLES
134.1268MAROT PHILIPPE41BEL3:11:063:11:156:23 9.41126homCHASTRE
135.161FARNAUTS KIRSTEN46BEL3:11:303:11:426:24 9.399damZAVENTEM
136.1050VAN NUFFELEN BASTIEN31BEL3:11:323:11:526:24 9.38127homGILLY
137.1279VOUÉ THIERRY45BEL3:12:043:12:306:25 9.35128homBAISY-THY
138.151FBAUWENS MARINE33BEL3:12:363:12:446:26 9.3410damWAVRE
139.958QUIQUEMPOIX MICHEL55BEL3:12:333:12:446:26 9.34129homLASNE
140.1054COUVREUR CHARLES21BEL3:12:413:12:536:26 9.33130homMARBAIS
141.1043MALBURNY JULIEN35BEL3:12:593:13:196:27 9.31131homSOMBREFFE
142.1281LENOIR ROBIN24BEL3:13:463:13:556:28 9.28132homSILLY
143.378RENAUT JONATHAN29BEL3:14:013:14:226:29 9.26133homMANAGE
144.956DIEUDONNE MICHEL49BEL3:14:253:14:316:30 9.25134homCERFONTAINE
145.130MATHIEU CÉDRIC33BEL3:14:413:14:536:30 9.24135homSOMBREFFE
146.494DELAHAYE YVES58BEL3:14:433:15:046:31 9.23136homGEMBLOUX
147.472CHAUVIER JEAN-PIERRE58BEL3:15:313:15:466:32 9.19137homYVES-GOMEZEE
148.5JACOBS FRANÇOIS-DOMINIQUE58BEL3:15:583:16:206:33 9.17138homOTTIGNIES
149.964SNEESSENS ALAIN48BEL3:16:383:16:546:34 9.14139homJODOIGNE
150.1280HEUREUX NICOLAS39BEL3:16:543:17:156:35 9.13140homLONZEE
151.1049RENWART DIMITRI29BEL3:17:233:17:296:35 9.12141homWAUTHIER-BRAINRE
152.464O'NEILL SHANE32IRL3:17:463:18:006:36 9.09142homETTERBEEK
153.126MOROSO JEAN-FRANÇOIS44BEL3:18:493:18:566:38 9.05143homVILLERS-PERWIN
154.351DESWAEF VINCENT31BEL3:18:593:19:106:39 9.04144homNIVELLES
155.385FVIRAG GABRIELA40BEL3:19:113:19:216:39 9.0311damOHAIN
156.374MERTENS RAPHAEL44BEL3:19:093:19:226:39 9.03145homEMINES
157.1079FDURAND PAULINE30FRA3:19:323:19:366:40 9.0212damAUDERGHEM
158.170DELAERE CHRISTOPHE55BEL3:19:293:19:526:40 9.01146homBRUXELLES
159.966LEBRUN EMMANUEL50BEL3:19:533:20:116:41 8.99147homARBRE
160.1243GHISLAIN NICOLAS34BEL3:20:043:20:306:41 8.98148homINCOURT
161.128RUVEL JULIEN34FRA3:20:183:20:376:42 8.97149homTOURCOING
162.1253COURTIN BRUNO46BEL3:20:203:20:416:42 8.97150homGENVAL
163.961FVAN DEN BERGH CONNIE52BEL3:20:473:20:596:42 8.9613damEKEREN
164.337FTRUYENS MIEKE52BEL3:20:473:20:596:42 8.9614damSCHOTEN
165.999SAINT GHISLAIN GERT54BEL3:20:483:20:596:42 8.96151homMERKSEM
166.428MOREL ADRIEN31FRA3:20:443:21:026:43 8.95152homLILLE
167.973DOOREMONT KJELL38BEL3:20:373:21:046:43 8.95153homLEBBEKE
168.972FSTROOBANT JUSTINE25BEL3:20:373:21:046:43 8.9515damIXELLES
169.399FDE FRAINE INGRID39BEL3:21:153:21:236:43 8.9416damROTSELAAR
170.166FVUYLSTEKE VERONIQUE41BEL3:21:153:21:236:43 8.9417damLEUVEN
171.988HOTAT MICHEL49BEL3:21:163:21:276:43 8.94154homVILLERS-LA-VILLE
172.159CUENOT TRISTAN45FRA3:21:343:21:436:44 8.92155homPAPIGNIES
173.969GASON FABRICE48BEL3:21:443:21:576:44 8.91156homKRAAINEM
174.981GOORIS VINCENT51BEL3:21:453:22:076:45 8.91157homMÉLIN
175.950SERAFIN LORENZO39BEL3:22:183:22:406:46 8.88158homWAUDREZ
176.503FCOUMPOURAS GERALDINE40BEL3:22:323:22:496:46 8.8818damHAVRE
177.1327VAN DURME CHRISTOPHE31BEL3:23:003:23:136:47 8.86159homBRUXELLES
178.1272LAMBERT FRÉDÉRIC33BEL3:23:033:23:276:47 8.85160homBRAINE-LE-COMTE
179.1295DETREZ JEAN-SEBASTIEN30BEL3:23:153:23:306:47 8.85161homMARBAIS
180.417CACHEUX JEAN-NOËL46BEL3:23:053:23:336:48 8.84162homBRUXELLES
181.112BORREMANS FRÉDÉRIC41BEL3:23:293:23:396:48 8.84163homLIMELETTE
182.995PLOYAERT ERIC63BEL3:23:283:23:416:48 8.84164homLOBBES
183.402LEJEUNE TOM45BEL3:23:543:24:146:49 8.81165homNIVELLES
184.991VERBEEK JEAN-LUC64BEL3:24:073:24:326:50 8.80166homBOUSVAL
185.285LUQUE CHRISTIAN51BEL3:24:503:25:196:51 8.77167homMETTET
186.524JESSE PHILIPPE50BEL3:25:583:26:176:53 8.73168hom
187.1257VERSPECHT THIERRY57BEL3:26:333:26:546:54 8.70169homWEZEMBEEK-OPPEM
188.962DEVOS JEAN-FRANÇOIS45BEL3:26:233:26:556:54 8.70170homCHARLEROI
189.491ROUSSEAUX BENOIT55BEL3:26:503:27:156:55 8.69171homZAVENTEM
190.1033LAURENT JULIEN42BEL3:27:043:27:306:55 8.68172homWALHAIN
191.1300LOSSEAU BENOIT41BEL3:27:053:27:316:56 8.67173homMELLET
192.373SAUME OLIVIER41BEL3:27:013:27:316:56 8.67174homRIXENSART
193.1324PERICLES KONSTANTOPOULOS66GRC3:27:073:27:346:56 8.67175homBEERSEL
194.356MALENGREAU FREDERIC49BEL3:27:173:27:346:56 8.67176homLONZÉE
195.1081SANTAROSSA SILVIO44BEL3:27:103:27:366:56 8.67177homMONTIGNY-LE-TILLEUL
196.1405FPIETTE AMANDINE27BEL3:27:133:27:376:56 8.6719damSART-DAMES-AVELINES
197.442MICHAUX LUC45BEL3:27:403:27:536:56 8.66178homSCHALTIN
198.1008DEGREZ FRANÇOIS33BEL3:27:393:27:596:56 8.66179homNAMUR
199.480DE BOCK PHILIP46BEL3:28:433:28:556:58 8.62180homOTTIGNIES
200.162SIX JULIEN28FRA3:28:363:28:576:58 8.61181homLILLE
201.312MARZULLO GIROLAMO48ITA3:28:413:29:026:59 8.61182homNIVELLES
202.1053LASZLO ILLES41HUN3:28:543:29:226:59 8.60183homAUDERGHEM
203.388MANFRON ELISEO52ITA3:29:333:29:467:00 8.58184homDION VALMONT
204.1289FSAUME MARIE-EVE35BEL3:31:423:32:137:05 8.4820damNIVELLES
205.398BRUGGEMANS BRUNO30BEL3:31:523:32:177:05 8.48185homCOURT-SAINT-ETIENNE
206.171FFOX SOPHIE43BEL3:32:393:32:477:06 8.4621damHINGEON
207.401FKEERSMAEKERS CARMEN33BEL3:32:503:33:047:07 8.4522damLIER
208.942FMICHAUX GWENAELLE33BEL3:32:543:33:117:07 8.4423damBOUGE
209.1551FDOMENJOD ANAIS28FRA3:33:243:33:317:08 8.4324damMOUCHIN
210.136PLAQUET QUENTIN66BEL3:34:003:34:297:09 8.39186homFELUY
211.1404PLASMAN PIERRE36BEL3:34:053:34:297:09 8.39187homSART-DAMES-AVELINES
212.363MISPLON JORIS31BEL3:34:113:34:407:10 8.39188homLICHTERVELDE
213.420VAN GENECHTEN SERGE57BEL3:34:483:35:127:11 8.36189homWATERLOO
214.268LAGOUGE BERNARD52BEL3:35:573:36:157:13 8.32190homLA HULPE
215.179FSOHY DELPHINE43BEL3:36:053:36:157:13 8.3225damHUY
216.963SCHOENAERTS KRIS38BEL3:35:593:36:177:13 8.32191homTONGEREN
217.471BERTRAND PHILIPPE VICTOR52BEL3:36:063:36:287:13 8.32192homCOURT-SAINT-ETIENNE
218.332BISIAU PHILIPPE57FRA3:36:253:36:507:14 8.30193homBOUSIGNIES
219.412TRICOT SEBASTIEN41BEL3:36:343:36:567:14 8.30194homMONCEAU-SUR-SAMBREAU-SUR-SAMBREE
220.960VANCOLEN YANNICK53BEL3:36:343:37:017:15 8.29195homRAMILLIES
221.173HANSEZ BENOÎT41BEL3:37:003:37:067:15 8.29196homRHODE-SAINT-GENÈSE
222.459PORTER RYAN32GBR3:37:013:37:207:15 8.28197homBRUXELLES
223.377GAGLIARDI PIERRE45ITA3:38:043:38:257:17 8.24198homLA LOUVIÈRE
224.437GORGEMANS LAURENT48BEL3:38:333:38:397:18 8.23199homNOBRESSART
225.458FHUYLEBROECK CECILE42BEL3:38:423:39:037:19 8.2226damBRUXELLES
226.1293FFOCAN MURIEL42BEL3:39:053:39:217:19 8.2127damCHAUMONT-GISTOUX
227.403GIRODROUX THOMAS37BEL3:39:213:39:407:20 8.19200homAUDERGHEM
228.114FCOPPENS ANNE SOPHIE39BEL3:40:533:41:087:23 8.1428damPERWEZ
229.1286CLEIRENS MARIO51BEL3:41:243:41:417:24 8.12201homMELSELE
230.147PILETTE DANNY53BEL3:42:383:43:007:26 8.07202homBINCHE
231.416FPEETROONS KARINA49BEL3:43:583:44:177:29 8.0329damGROOT-BIJGAARDEN
232.364FTROUILLARD EVY36BEL3:44:113:44:217:29 8.0230damLIER
233.386PINDEVILLE CHRISTIAN70BEL3:44:073:44:237:29 8.02203homWAVRE
234.1075LEMLIN GRÉGORY38BEL3:44:113:44:277:29 8.02204homMARBAIS
235.1273CORBISIER ARNAUD43BEL3:44:123:44:277:29 8.02205homVILLERS LA VILLE
236.1045VANDERMOSTEN XAVIER53BEL3:44:113:44:277:29 8.02206homVILLERS-LA-VILLE
237.365FMEYER DELPHINE28FRA3:46:463:47:007:34 7.9331damTOURNAI
238.4GEETS BERTRAND48BEL3:46:523:47:007:34 7.93207homGELBRESSEE
239.117VINCART FREDERIC45BEL3:49:073:49:247:39 7.85208homGENTINNES
240.1263FVANDERBECKEN NATHALIE42BEL3:51:243:51:357:44 7.7732damLE ROEULX
241.477DESPY PASCAL38BEL3:51:423:52:087:45 7.75209hom
242.400FLEMMENS STÉPHANIE44BEL3:51:423:52:097:45 7.7533damGEMBLOUX
243.421FEGA CAROLINE30BEL3:51:563:52:137:45 7.7534damHAM-SUR-HEURE
244.967MINE FABRICE45BEL3:55:243:55:447:52 7.64210homBIOUL
245.355FLEFIN VALÉRIE41BEL3:56:013:56:087:53 7.6235damETHE
246.1290ODENT MAXIME25BEL3:56:133:56:187:53 7.62211homBOUSVAL
247.422AUQUIER HERVÉ51BEL3:56:403:57:027:55 7.59212homWAVRE
248.1256FNOWAKOWSKI STÉPHANIE32BEL3:57:083:57:307:55 7.5836damWOLUWE-SAINT-LAMBERT
249.336FLEPOT ANNICK35BEL3:59:003:59:187:59 7.5237damARBRE
250.380FHOCK FRANÇOISE53BEL3:59:193:59:488:00 7.5138damOTTIGNIES
251.1039FSERVAIS ESTHER41BEL4:05:054:05:288:11 7.3339damJEMEPPE SUR SAMBRE
252.1038FSOMVILLE SÉVERINE38BEL4:05:054:05:298:11 7.3340damCORROY LE CHATEAU
253.1292FBOUDART VIRGINIE43BEL4:05:564:06:178:13 7.3141damLUTTRE
254.965FDEMOULIN SYLVIA40BEL4:05:474:06:178:13 7.3142damSENY
255.1265DELBOUILLE THIERRY51BEL4:13:524:14:228:29 7.08213homSOIGNIES
256.1291PATERNOSTRE LAURENT51BEL4:21:554:22:198:45 6.86214homATH
257.395PRÉVOST JULIEN41BEL4:21:554:22:198:45 6.86215homMONTIGNIES-SUR-SAMBRE
258.382DELILLE FRÉDÉRIC51BEL4:21:574:22:218:45 6.86216homATH
259.1040PIQUARD BEN51BEL4:27:014:27:198:55 6.73217homGENVAL
260.1066QUINAUX CHRISTOPHE44BEL4:33:324:33:429:08 6.58218homWAYS
DNF1531BAYET JACQUES48BELhomCOURCELLES
DNF970GALVEZ GAUTHIER38FRAhomJEMEPPE-SUR-SAMBRE
DNF996HUBEAUX RICHARD48BELhomFLAWINNE
DNF959SANTINI NICOLAS19FRAhomBRUXELLES
DNF1041VAN HEUVERSWYN MAXIME30BELhomRAMILLIES
DNF354VAN TUIJCOM BENJAMIN28BELhomBRAINE L’ALLEUD
DNF1530FWARIN CORINNE48BELdamCOURCELLES
DNF227WILLEMS MAARTEN37BELhomGENT
DNF: did not finish; DSQ: disqualified; Speed in km/h
Page: [1]